sensor_id;sensor_type;location;lat;lon;timestamp;temperature;humidity
73576;DHT22;61859;49.204;8.140;2023-05-15T00:02:25;13.30;83.30
73576;DHT22;61859;49.204;8.140;2023-05-15T00:04:51;13.20;83.60
73576;DHT22;61859;49.204;8.140;2023-05-15T00:07:16;13.20;83.80
73576;DHT22;61859;49.204;8.140;2023-05-15T00:09:42;13.10;83.80
73576;DHT22;61859;49.204;8.140;2023-05-15T00:12:08;13.10;83.80
73576;DHT22;61859;49.204;8.140;2023-05-15T00:14:33;13.00;84.00
73576;DHT22;61859;49.204;8.140;2023-05-15T00:16:59;13.00;84.10
73576;DHT22;61859;49.204;8.140;2023-05-15T00:19:24;12.90;84.40
73576;DHT22;61859;49.204;8.140;2023-05-15T00:21:50;12.90;84.60
73576;DHT22;61859;49.204;8.140;2023-05-15T00:24:15;12.80;84.80
73576;DHT22;61859;49.204;8.140;2023-05-15T00:26:41;12.80;85.00
73576;DHT22;61859;49.204;8.140;2023-05-15T00:29:06;12.80;85.20
73576;DHT22;61859;49.204;8.140;2023-05-15T00:31:32;12.70;85.40
73576;DHT22;61859;49.204;8.140;2023-05-15T00:33:58;12.70;85.50
73576;DHT22;61859;49.204;8.140;2023-05-15T00:36:23;12.70;85.90
73576;DHT22;61859;49.204;8.140;2023-05-15T00:38:50;12.70;86.20
73576;DHT22;61859;49.204;8.140;2023-05-15T00:41:16;12.70;86.40
73576;DHT22;61859;49.204;8.140;2023-05-15T00:43:42;12.60;87.00
73576;DHT22;61859;49.204;8.140;2023-05-15T00:46:08;12.70;86.30
73576;DHT22;61859;49.204;8.140;2023-05-15T00:48:34;12.60;87.00
73576;DHT22;61859;49.204;8.140;2023-05-15T00:51:00;12.70;86.60
73576;DHT22;61859;49.204;8.140;2023-05-15T00:53:26;12.70;86.70
73576;DHT22;61859;49.204;8.140;2023-05-15T00:55:56;12.60;87.10
73576;DHT22;61859;49.204;8.140;2023-05-15T00:58:22;12.70;86.20
73576;DHT22;61859;49.204;8.140;2023-05-15T01:00:49;12.70;86.20
73576;DHT22;61859;49.204;8.140;2023-05-15T01:03:16;12.80;86.30
73576;DHT22;61859;49.204;8.140;2023-05-15T01:05:42;12.80;86.00
73576;DHT22;61859;49.204;8.140;2023-05-15T01:08:31;12.80;85.60
73576;DHT22;61859;49.204;8.140;2023-05-15T01:11:03;12.80;85.50
73576;DHT22;61859;49.204;8.140;2023-05-15T01:13:29;12.90;85.60
73576;DHT22;61859;49.204;8.140;2023-05-15T01:15:55;12.90;85.40
73576;DHT22;61859;49.204;8.140;2023-05-15T01:18:22;12.90;85.60
73576;DHT22;61859;49.204;8.140;2023-05-15T01:27:05;12.90;85.70
73576;DHT22;61859;49.204;8.140;2023-05-15T01:29:43;12.80;85.80
73576;DHT22;61859;49.204;8.140;2023-05-15T01:32:18;12.80;85.90
73576;DHT22;61859;49.204;8.140;2023-05-15T01:37:33;12.70;86.20
73576;DHT22;61859;49.204;8.140;2023-05-15T01:40:02;12.70;86.40
73576;DHT22;61859;49.204;8.140;2023-05-15T01:42:34;12.60;87.10
73576;DHT22;61859;49.204;8.140;2023-05-15T01:45:04;12.70;87.60
73576;DHT22;61859;49.204;8.140;2023-05-15T01:47:39;12.60;87.80
73576;DHT22;61859;49.204;8.140;2023-05-15T01:50:06;12.60;88.00
73576;DHT22;61859;49.204;8.140;2023-05-15T01:52:36;12.40;88.10
73576;DHT22;61859;49.204;8.140;2023-05-15T01:55:05;12.40;88.20
73576;DHT22;61859;49.204;8.140;2023-05-15T01:57:32;12.40;88.40
73576;DHT22;61859;49.204;8.140;2023-05-15T01:59:58;12.40;88.40
73576;DHT22;61859;49.204;8.140;2023-05-15T02:02:26;12.30;88.60
73576;DHT22;61859;49.204;8.140;2023-05-15T02:04:53;12.20;88.70
73576;DHT22;61859;49.204;8.140;2023-05-15T02:07:19;12.20;89.20
73576;DHT22;61859;49.204;8.140;2023-05-15T02:09:45;12.00;89.30
73576;DHT22;61859;49.204;8.140;2023-05-15T02:12:12;11.70;89.40
73576;DHT22;61859;49.204;8.140;2023-05-15T02:14:39;11.60;89.70
73576;DHT22;61859;49.204;8.140;2023-05-15T02:17:05;11.50;90.00
73576;DHT22;61859;49.204;8.140;2023-05-15T02:19:31;11.40;90.10
73576;DHT22;61859;49.204;8.140;2023-05-15T02:21:57;11.30;90.20
73576;DHT22;61859;49.204;8.140;2023-05-15T02:24:22;11.30;90.30
73576;DHT22;61859;49.204;8.140;2023-05-15T02:27:09;11.20;90.70
73576;DHT22;61859;49.204;8.140;2023-05-15T02:30:05;11.10;91.00
73576;DHT22;61859;49.204;8.140;2023-05-15T02:32:58;10.90;91.00
73576;DHT22;61859;49.204;8.140;2023-05-15T02:35:36;10.80;91.30
73576;DHT22;61859;49.204;8.140;2023-05-15T02:38:08;10.80;91.90
73576;DHT22;61859;49.204;8.140;2023-05-15T02:40:36;10.80;91.90
73576;DHT22;61859;49.204;8.140;2023-05-15T02:43:03;10.80;93.30
73576;DHT22;61859;49.204;8.140;2023-05-15T02:45:29;10.80;93.30
73576;DHT22;61859;49.204;8.140;2023-05-15T02:47:55;10.90;93.20
73576;DHT22;61859;49.204;8.140;2023-05-15T02:50:21;10.90;93.10
73576;DHT22;61859;49.204;8.140;2023-05-15T02:52:47;10.80;93.00
73576;DHT22;61859;49.204;8.140;2023-05-15T02:55:12;10.80;93.00
73576;DHT22;61859;49.204;8.140;2023-05-15T02:57:38;10.80;93.10
73576;DHT22;61859;49.204;8.140;2023-05-15T03:00:04;10.80;93.00
73576;DHT22;61859;49.204;8.140;2023-05-15T03:02:33;10.70;92.90
73576;DHT22;61859;49.204;8.140;2023-05-15T03:04:58;10.80;93.00
73576;DHT22;61859;49.204;8.140;2023-05-15T03:07:24;10.70;93.10
73576;DHT22;61859;49.204;8.140;2023-05-15T03:09:50;10.80;93.00
73576;DHT22;61859;49.204;8.140;2023-05-15T03:12:15;10.70;93.00
73576;DHT22;61859;49.204;8.140;2023-05-15T03:14:41;10.70;93.10
73576;DHT22;61859;49.204;8.140;2023-05-15T03:17:06;10.80;93.00
73576;DHT22;61859;49.204;8.140;2023-05-15T03:19:32;10.60;92.90
73576;DHT22;61859;49.204;8.140;2023-05-15T03:21:57;10.60;93.10
73576;DHT22;61859;49.204;8.140;2023-05-15T03:24:23;10.60;93.10
73576;DHT22;61859;49.204;8.140;2023-05-15T03:26:48;10.60;93.10
73576;DHT22;61859;49.204;8.140;2023-05-15T03:29:14;10.50;93.40
73576;DHT22;61859;49.204;8.140;2023-05-15T03:31:39;10.50;94.10
73576;DHT22;61859;49.204;8.140;2023-05-15T03:34:05;10.50;93.90
73576;DHT22;61859;49.204;8.140;2023-05-15T03:36:30;10.50;94.10
73576;DHT22;61859;49.204;8.140;2023-05-15T03:38:56;10.60;94.00
73576;DHT22;61859;49.204;8.140;2023-05-15T03:41:22;10.60;94.10
73576;DHT22;61859;49.204;8.140;2023-05-15T03:43:47;10.60;93.90
73576;DHT22;61859;49.204;8.140;2023-05-15T03:46:13;10.60;94.00
73576;DHT22;61859;49.204;8.140;2023-05-15T03:48:39;10.60;94.10
73576;DHT22;61859;49.204;8.140;2023-05-15T03:51:04;10.60;94.00
73576;DHT22;61859;49.204;8.140;2023-05-15T03:53:30;10.60;93.90
73576;DHT22;61859;49.204;8.140;2023-05-15T03:55:56;10.50;94.00
73576;DHT22;61859;49.204;8.140;2023-05-15T03:58:21;10.60;94.20
73576;DHT22;61859;49.204;8.140;2023-05-15T04:00:47;10.60;94.10
73576;DHT22;61859;49.204;8.140;2023-05-15T04:03:13;10.50;94.10
73576;DHT22;61859;49.204;8.140;2023-05-15T04:05:38;10.50;94.00
73576;DHT22;61859;49.204;8.140;2023-05-15T04:08:04;10.50;94.10
73576;DHT22;61859;49.204;8.140;2023-05-15T04:10:30;10.50;94.10
73576;DHT22;61859;49.204;8.140;2023-05-15T04:12:56;10.40;94.20
73576;DHT22;61859;49.204;8.140;2023-05-15T04:15:24;10.50;94.20
73576;DHT22;61859;49.204;8.140;2023-05-15T04:17:51;10.50;94.20
73576;DHT22;61859;49.204;8.140;2023-05-15T04:20:22;10.40;94.20
73576;DHT22;61859;49.204;8.140;2023-05-15T04:22:48;10.40;94.40
73576;DHT22;61859;49.204;8.140;2023-05-15T04:25:14;10.40;94.50
73576;DHT22;61859;49.204;8.140;2023-05-15T04:27:41;10.40;94.60
73576;DHT22;61859;49.204;8.140;2023-05-15T04:30:07;10.40;94.50
73576;DHT22;61859;49.204;8.140;2023-05-15T04:32:33;10.40;94.60
73576;DHT22;61859;49.204;8.140;2023-05-15T04:34:59;10.50;94.60
73576;DHT22;61859;49.204;8.140;2023-05-15T04:37:26;10.50;94.60
73576;DHT22;61859;49.204;8.140;2023-05-15T04:39:51;10.60;94.60
73576;DHT22;61859;49.204;8.140;2023-05-15T04:42:17;10.80;94.20
73576;DHT22;61859;49.204;8.140;2023-05-15T04:44:42;10.80;94.00
73576;DHT22;61859;49.204;8.140;2023-05-15T04:47:09;10.90;94.00
73576;DHT22;61859;49.204;8.140;2023-05-15T04:49:35;10.90;93.70
73576;DHT22;61859;49.204;8.140;2023-05-15T04:52:01;11.00;93.30
73576;DHT22;61859;49.204;8.140;2023-05-15T04:54:27;11.10;92.70
73576;DHT22;61859;49.204;8.140;2023-05-15T04:56:52;11.40;92.80
73576;DHT22;61859;49.204;8.140;2023-05-15T04:59:18;11.50;92.10
73576;DHT22;61859;49.204;8.140;2023-05-15T05:01:44;11.80;91.50
73576;DHT22;61859;49.204;8.140;2023-05-15T05:04:09;11.90;91.20
73576;DHT22;61859;49.204;8.140;2023-05-15T05:06:35;12.00;90.70
73576;DHT22;61859;49.204;8.140;2023-05-15T05:09:00;12.10;90.20
73576;DHT22;61859;49.204;8.140;2023-05-15T05:11:26;12.10;90.20
73576;DHT22;61859;49.204;8.140;2023-05-15T05:13:51;12.30;89.90
73576;DHT22;61859;49.204;8.140;2023-05-15T05:16:17;12.30;89.60
73576;DHT22;61859;49.204;8.140;2023-05-15T05:18:42;12.30;89.40
73576;DHT22;61859;49.204;8.140;2023-05-15T05:21:08;12.40;89.30
73576;DHT22;61859;49.204;8.140;2023-05-15T05:23:34;12.30;89.50
73576;DHT22;61859;49.204;8.140;2023-05-15T05:25:59;12.30;89.60
73576;DHT22;61859;49.204;8.140;2023-05-15T05:28:25;12.30;89.50
73576;DHT22;61859;49.204;8.140;2023-05-15T05:30:50;12.20;89.70
73576;DHT22;61859;49.204;8.140;2023-05-15T05:33:16;12.30;89.60
73576;DHT22;61859;49.204;8.140;2023-05-15T05:35:41;12.30;89.60
73576;DHT22;61859;49.204;8.140;2023-05-15T05:38:07;12.40;89.30
73576;DHT22;61859;49.204;8.140;2023-05-15T05:40:32;12.50;89.00
73576;DHT22;61859;49.204;8.140;2023-05-15T05:43:01;12.50;88.70
73576;DHT22;61859;49.204;8.140;2023-05-15T05:45:28;12.60;88.60
73576;DHT22;61859;49.204;8.140;2023-05-15T05:47:56;12.80;88.20
73576;DHT22;61859;49.204;8.140;2023-05-15T05:50:22;12.90;87.30
73576;DHT22;61859;49.204;8.140;2023-05-15T05:52:48;13.10;87.40
73576;DHT22;61859;49.204;8.140;2023-05-15T05:55:14;13.10;86.50
73576;DHT22;61859;49.204;8.140;2023-05-15T05:57:40;13.30;86.00
73576;DHT22;61859;49.204;8.140;2023-05-15T06:00:06;13.40;85.60
73576;DHT22;61859;49.204;8.140;2023-05-15T06:02:37;13.50;85.00
73576;DHT22;61859;49.204;8.140;2023-05-15T06:05:04;13.60;85.50
73576;DHT22;61859;49.204;8.140;2023-05-15T06:07:31;13.70;85.10
73576;DHT22;61859;49.204;8.140;2023-05-15T06:09:56;13.90;84.10
73576;DHT22;61859;49.204;8.140;2023-05-15T06:12:22;14.00;83.80
73576;DHT22;61859;49.204;8.140;2023-05-15T06:14:47;14.10;83.80
73576;DHT22;61859;49.204;8.140;2023-05-15T06:17:13;14.10;83.60
73576;DHT22;61859;49.204;8.140;2023-05-15T06:19:38;14.30;83.00
73576;DHT22;61859;49.204;8.140;2023-05-15T06:22:04;14.40;83.10
73576;DHT22;61859;49.204;8.140;2023-05-15T06:24:29;14.40;82.70
73576;DHT22;61859;49.204;8.140;2023-05-15T06:26:55;14.50;82.50
73576;DHT22;61859;49.204;8.140;2023-05-15T06:29:21;14.60;82.50
73576;DHT22;61859;49.204;8.140;2023-05-15T06:31:46;14.70;82.30
73576;DHT22;61859;49.204;8.140;2023-05-15T06:34:12;14.90;81.30
73576;DHT22;61859;49.204;8.140;2023-05-15T06:36:38;15.00;80.60
73576;DHT22;61859;49.204;8.140;2023-05-15T06:39:03;15.10;81.30
73576;DHT22;61859;49.204;8.140;2023-05-15T06:41:31;15.30;81.50
73576;DHT22;61859;49.204;8.140;2023-05-15T06:43:57;15.40;81.30
73576;DHT22;61859;49.204;8.140;2023-05-15T06:46:34;15.60;80.30
73576;DHT22;61859;49.204;8.140;2023-05-15T06:48:59;15.90;77.60
73576;DHT22;61859;49.204;8.140;2023-05-15T06:51:25;16.10;78.60
73576;DHT22;61859;49.204;8.140;2023-05-15T06:53:51;16.20;80.10
73576;DHT22;61859;49.204;8.140;2023-05-15T06:56:16;16.40;78.60
73576;DHT22;61859;49.204;8.140;2023-05-15T06:58:44;16.50;79.30
73576;DHT22;61859;49.204;8.140;2023-05-15T07:01:09;16.80;78.40
73576;DHT22;61859;49.204;8.140;2023-05-15T07:03:35;16.90;77.70
73576;DHT22;61859;49.204;8.140;2023-05-15T07:06:01;16.90;78.20
73576;DHT22;61859;49.204;8.140;2023-05-15T07:08:26;17.10;76.80
73576;DHT22;61859;49.204;8.140;2023-05-15T07:10:52;17.20;77.30
73576;DHT22;61859;49.204;8.140;2023-05-15T07:13:19;17.40;76.60
73576;DHT22;61859;49.204;8.140;2023-05-15T07:15:45;17.50;75.80
73576;DHT22;61859;49.204;8.140;2023-05-15T07:18:10;17.60;75.70
73576;DHT22;61859;49.204;8.140;2023-05-15T07:20:36;17.70;75.30
73576;DHT22;61859;49.204;8.140;2023-05-15T07:23:02;17.80;74.60
73576;DHT22;61859;49.204;8.140;2023-05-15T07:25:28;18.20;73.60
73576;DHT22;61859;49.204;8.140;2023-05-15T07:27:53;18.40;73.00
73576;DHT22;61859;49.204;8.140;2023-05-15T07:30:19;18.70;72.40
73576;DHT22;61859;49.204;8.140;2023-05-15T07:32:45;19.10;69.60
73576;DHT22;61859;49.204;8.140;2023-05-15T07:35:11;19.30;68.70
73576;DHT22;61859;49.204;8.140;2023-05-15T07:37:37;19.40;67.30
73576;DHT22;61859;49.204;8.140;2023-05-15T07:40:03;19.70;65.30
73576;DHT22;61859;49.204;8.140;2023-05-15T07:42:29;19.90;64.60
73576;DHT22;61859;49.204;8.140;2023-05-15T07:44:54;20.00;64.00
73576;DHT22;61859;49.204;8.140;2023-05-15T07:47:20;20.20;63.00
73576;DHT22;61859;49.204;8.140;2023-05-15T07:49:45;20.20;63.40
73576;DHT22;61859;49.204;8.140;2023-05-15T07:52:11;20.40;61.90
73576;DHT22;61859;49.204;8.140;2023-05-15T07:54:36;20.50;61.90
73576;DHT22;61859;49.204;8.140;2023-05-15T07:57:04;20.60;61.50
73576;DHT22;61859;49.204;8.140;2023-05-15T07:59:29;20.60;60.10
73576;DHT22;61859;49.204;8.140;2023-05-15T08:01:55;20.70;61.70
73576;DHT22;61859;49.204;8.140;2023-05-15T08:04:20;20.70;59.90
73576;DHT22;61859;49.204;8.140;2023-05-15T08:06:46;20.60;60.40
73576;DHT22;61859;49.204;8.140;2023-05-15T08:09:11;20.80;59.80
73576;DHT22;61859;49.204;8.140;2023-05-15T08:11:37;20.90;58.70
73576;DHT22;61859;49.204;8.140;2023-05-15T08:14:02;21.10;58.30
73576;DHT22;61859;49.204;8.140;2023-05-15T08:16:28;21.20;57.40
73576;DHT22;61859;49.204;8.140;2023-05-15T08:18:54;21.30;57.80
73576;DHT22;61859;49.204;8.140;2023-05-15T08:21:25;21.50;57.10
73576;DHT22;61859;49.204;8.140;2023-05-15T08:23:51;21.70;55.00
73576;DHT22;61859;49.204;8.140;2023-05-15T08:26:16;21.70;56.00
73576;DHT22;61859;49.204;8.140;2023-05-15T08:28:42;21.90;55.30
73576;DHT22;61859;49.204;8.140;2023-05-15T08:31:07;22.00;55.90
73576;DHT22;61859;49.204;8.140;2023-05-15T08:33:33;22.20;55.40
73576;DHT22;61859;49.204;8.140;2023-05-15T08:35:58;22.50;55.10
73576;DHT22;61859;49.204;8.140;2023-05-15T08:38:24;22.60;54.10
73576;DHT22;61859;49.204;8.140;2023-05-15T08:40:51;22.60;53.70
73576;DHT22;61859;49.204;8.140;2023-05-15T08:43:20;22.60;55.20
73576;DHT22;61859;49.204;8.140;2023-05-15T08:45:48;22.90;53.80
73576;DHT22;61859;49.204;8.140;2023-05-15T08:48:16;23.10;53.00
73576;DHT22;61859;49.204;8.140;2023-05-15T08:50:45;23.50;51.30
73576;DHT22;61859;49.204;8.140;2023-05-15T08:53:12;23.60;50.70
73576;DHT22;61859;49.204;8.140;2023-05-15T08:55:37;23.70;51.80
73576;DHT22;61859;49.204;8.140;2023-05-15T08:58:03;23.60;51.10
73576;DHT22;61859;49.204;8.140;2023-05-15T09:00:29;23.70;52.20
73576;DHT22;61859;49.204;8.140;2023-05-15T09:02:59;24.00;51.70
73576;DHT22;61859;49.204;8.140;2023-05-15T09:05:29;24.00;50.50
73576;DHT22;61859;49.204;8.140;2023-05-15T09:07:56;23.80;50.70
73576;DHT22;61859;49.204;8.140;2023-05-15T09:10:23;24.00;51.00
73576;DHT22;61859;49.204;8.140;2023-05-15T09:12:50;24.30;49.40
73576;DHT22;61859;49.204;8.140;2023-05-15T09:15:18;24.80;50.40
73576;DHT22;61859;49.204;8.140;2023-05-15T09:17:47;25.20;48.50
73576;DHT22;61859;49.204;8.140;2023-05-15T09:20:33;25.60;48.00
73576;DHT22;61859;49.204;8.140;2023-05-15T09:23:00;25.70;47.60
73576;DHT22;61859;49.204;8.140;2023-05-15T09:25:34;25.40;47.30
73576;DHT22;61859;49.204;8.140;2023-05-15T09:28:01;24.90;47.80
73576;DHT22;61859;49.204;8.140;2023-05-15T09:30:27;24.80;49.00
73576;DHT22;61859;49.204;8.140;2023-05-15T09:32:57;25.00;48.50
73576;DHT22;61859;49.204;8.140;2023-05-15T09:37:57;24.70;48.90
73576;DHT22;61859;49.204;8.140;2023-05-15T09:40:30;24.40;48.70
73576;DHT22;61859;49.204;8.140;2023-05-15T09:42:56;24.30;49.20
73576;DHT22;61859;49.204;8.140;2023-05-15T09:45:23;24.30;49.80
73576;DHT22;61859;49.204;8.140;2023-05-15T09:48:03;24.50;49.30
73576;DHT22;61859;49.204;8.140;2023-05-15T09:50:34;24.60;48.30
73576;DHT22;61859;49.204;8.140;2023-05-15T09:53:00;24.50;48.40
73576;DHT22;61859;49.204;8.140;2023-05-15T09:55:26;24.40;48.00
73576;DHT22;61859;49.204;8.140;2023-05-15T09:58:07;24.00;48.80
73576;DHT22;61859;49.204;8.140;2023-05-15T10:00:34;24.00;49.00
73576;DHT22;61859;49.204;8.140;2023-05-15T10:03:01;23.90;49.00
73576;DHT22;61859;49.204;8.140;2023-05-15T10:05:27;23.80;49.90
73576;DHT22;61859;49.204;8.140;2023-05-15T10:07:54;23.80;52.30
73576;DHT22;61859;49.204;8.140;2023-05-15T10:10:20;23.60;53.00
73576;DHT22;61859;49.204;8.140;2023-05-15T10:12:47;23.40;53.70
73576;DHT22;61859;49.204;8.140;2023-05-15T10:15:15;23.10;55.40
73576;DHT22;61859;49.204;8.140;2023-05-15T10:17:42;23.10;56.20
73576;DHT22;61859;49.204;8.140;2023-05-15T10:20:09;23.10;54.90
73576;DHT22;61859;49.204;8.140;2023-05-15T10:22:39;23.30;55.70
73576;DHT22;61859;49.204;8.140;2023-05-15T10:25:08;24.10;53.30
73576;DHT22;61859;49.204;8.140;2023-05-15T10:27:35;24.80;50.90
73576;DHT22;61859;49.204;8.140;2023-05-15T10:30:03;25.20;49.10
73576;DHT22;61859;49.204;8.140;2023-05-15T10:32:29;25.80;48.50
73576;DHT22;61859;49.204;8.140;2023-05-15T10:34:56;26.30;47.60
73576;DHT22;61859;49.204;8.140;2023-05-15T10:37:22;26.70;45.50
73576;DHT22;61859;49.204;8.140;2023-05-15T10:39:49;27.00;45.30
73576;DHT22;61859;49.204;8.140;2023-05-15T10:42:15;27.50;44.80
73576;DHT22;61859;49.204;8.140;2023-05-15T10:44:41;28.10;41.60
73576;DHT22;61859;49.204;8.140;2023-05-15T10:47:07;28.50;41.80
73576;DHT22;61859;49.204;8.140;2023-05-15T10:49:33;28.60;40.90
73576;DHT22;61859;49.204;8.140;2023-05-15T10:52:00;28.10;40.90
73576;DHT22;61859;49.204;8.140;2023-05-15T10:54:27;27.20;41.60
73576;DHT22;61859;49.204;8.140;2023-05-15T10:56:54;26.40;44.50
73576;DHT22;61859;49.204;8.140;2023-05-15T10:59:20;25.20;44.80
73576;DHT22;61859;49.204;8.140;2023-05-15T11:01:54;24.10;45.60
73576;DHT22;61859;49.204;8.140;2023-05-15T11:04:22;23.00;48.00
73576;DHT22;61859;49.204;8.140;2023-05-15T11:06:49;22.00;50.90
73576;DHT22;61859;49.204;8.140;2023-05-15T11:14:35;20.70;55.80
73576;DHT22;61859;49.204;8.140;2023-05-15T11:17:08;20.90;57.40
73576;DHT22;61859;49.204;8.140;2023-05-15T11:24:57;24.20;51.50
73576;DHT22;61859;49.204;8.140;2023-05-15T11:27:25;26.50;46.00
73576;DHT22;61859;49.204;8.140;2023-05-15T11:30:21;27.40;42.00
73576;DHT22;61859;49.204;8.140;2023-05-15T11:32:47;27.10;42.10
73576;DHT22;61859;49.204;8.140;2023-05-15T11:35:26;26.60;43.00
73576;DHT22;61859;49.204;8.140;2023-05-15T11:40:23;25.80;43.20
73576;DHT22;61859;49.204;8.140;2023-05-15T11:45:25;25.60;44.30
73576;DHT22;61859;49.204;8.140;2023-05-15T11:47:52;26.00;43.50
73576;DHT22;61859;49.204;8.140;2023-05-15T11:50:18;26.30;41.00
73576;DHT22;61859;49.204;8.140;2023-05-15T11:52:44;26.30;40.60
73576;DHT22;61859;49.204;8.140;2023-05-15T11:55:10;25.90;41.80
73576;DHT22;61859;49.204;8.140;2023-05-15T11:57:37;25.50;43.10
73576;DHT22;61859;49.204;8.140;2023-05-15T12:00:03;25.20;43.90
73576;DHT22;61859;49.204;8.140;2023-05-15T12:02:30;24.90;44.30
73576;DHT22;61859;49.204;8.140;2023-05-15T12:04:56;24.70;45.00
73576;DHT22;61859;49.204;8.140;2023-05-15T12:07:21;24.80;44.80
73576;DHT22;61859;49.204;8.140;2023-05-15T12:09:50;25.40;44.60
73576;DHT22;61859;49.204;8.140;2023-05-15T12:12:19;26.10;44.10
73576;DHT22;61859;49.204;8.140;2023-05-15T12:14:45;27.20;43.30
73576;DHT22;61859;49.204;8.140;2023-05-15T12:17:10;28.40;41.80
73576;DHT22;61859;49.204;8.140;2023-05-15T12:19:37;29.30;40.50
73576;DHT22;61859;49.204;8.140;2023-05-15T12:22:04;30.00;38.30
73576;DHT22;61859;49.204;8.140;2023-05-15T12:24:30;29.70;39.40
73576;DHT22;61859;49.204;8.140;2023-05-15T12:26:56;29.60;39.20
73576;DHT22;61859;49.204;8.140;2023-05-15T12:29:22;28.60;37.80
73576;DHT22;61859;49.204;8.140;2023-05-15T12:31:48;28.00;39.30
73576;DHT22;61859;49.204;8.140;2023-05-15T12:34:18;27.10;41.30
73576;DHT22;61859;49.204;8.140;2023-05-15T12:36:44;26.40;42.00
73576;DHT22;61859;49.204;8.140;2023-05-15T12:39:10;25.70;44.00
73576;DHT22;61859;49.204;8.140;2023-05-15T12:41:36;25.10;44.40
73576;DHT22;61859;49.204;8.140;2023-05-15T12:44:03;24.50;44.50
73576;DHT22;61859;49.204;8.140;2023-05-15T12:46:29;23.80;45.50
73576;DHT22;61859;49.204;8.140;2023-05-15T12:48:59;23.10;46.90
73576;DHT22;61859;49.204;8.140;2023-05-15T12:51:25;22.60;51.50
73576;DHT22;61859;49.204;8.140;2023-05-15T12:53:52;21.70;61.20
73576;DHT22;61859;49.204;8.140;2023-05-15T12:56:18;20.60;65.10
73576;DHT22;61859;49.204;8.140;2023-05-15T12:58:43;19.60;66.90
73576;DHT22;61859;49.204;8.140;2023-05-15T13:01:09;18.70;66.20
73576;DHT22;61859;49.204;8.140;2023-05-15T13:03:35;18.20;68.60
73576;DHT22;61859;49.204;8.140;2023-05-15T13:06:01;17.60;77.00
73576;DHT22;61859;49.204;8.140;2023-05-15T13:08:27;17.30;77.10
73576;DHT22;61859;49.204;8.140;2023-05-15T13:10:58;16.90;78.70
73576;DHT22;61859;49.204;8.140;2023-05-15T13:13:27;16.70;81.90
73576;DHT22;61859;49.204;8.140;2023-05-15T13:16:03;16.50;82.50
73576;DHT22;61859;49.204;8.140;2023-05-15T13:18:28;16.70;81.30
73576;DHT22;61859;49.204;8.140;2023-05-15T13:20:54;17.30;80.00
73576;DHT22;61859;49.204;8.140;2023-05-15T13:23:20;18.90;74.40
73576;DHT22;61859;49.204;8.140;2023-05-15T13:25:48;20.30;68.60
73576;DHT22;61859;49.204;8.140;2023-05-15T13:28:14;21.00;63.30
73576;DHT22;61859;49.204;8.140;2023-05-15T13:30:40;21.70;62.50
73576;DHT22;61859;49.204;8.140;2023-05-15T13:33:07;22.30;59.90
73576;DHT22;61859;49.204;8.140;2023-05-15T13:35:34;22.70;63.40
73576;DHT22;61859;49.204;8.140;2023-05-15T13:37:59;23.40;55.90
73576;DHT22;61859;49.204;8.140;2023-05-15T13:40:25;24.00;52.70
73576;DHT22;61859;49.204;8.140;2023-05-15T13:42:51;23.70;52.10
73576;DHT22;61859;49.204;8.140;2023-05-15T13:45:17;23.50;53.70
73576;DHT22;61859;49.204;8.140;2023-05-15T13:47:43;23.10;55.70
73576;DHT22;61859;49.204;8.140;2023-05-15T13:50:10;23.10;55.10
73576;DHT22;61859;49.204;8.140;2023-05-15T13:52:37;24.00;54.10
73576;DHT22;61859;49.204;8.140;2023-05-15T13:55:03;24.80;53.10
73576;DHT22;61859;49.204;8.140;2023-05-15T13:57:29;25.10;49.60
73576;DHT22;61859;49.204;8.140;2023-05-15T13:59:55;24.50;51.10
73576;DHT22;61859;49.204;8.140;2023-05-15T14:02:21;23.60;51.70
73576;DHT22;61859;49.204;8.140;2023-05-15T14:04:51;23.00;52.20
73576;DHT22;61859;49.204;8.140;2023-05-15T14:07:16;22.60;52.50
73576;DHT22;61859;49.204;8.140;2023-05-15T14:09:42;22.80;52.60
73576;DHT22;61859;49.204;8.140;2023-05-15T14:12:08;23.10;50.50
73576;DHT22;61859;49.204;8.140;2023-05-15T14:14:34;23.10;51.00
73576;DHT22;61859;49.204;8.140;2023-05-15T14:17:00;23.30;49.00
73576;DHT22;61859;49.204;8.140;2023-05-15T14:19:25;24.10;48.20
73576;DHT22;61859;49.204;8.140;2023-05-15T14:21:51;24.60;46.60
73576;DHT22;61859;49.204;8.140;2023-05-15T14:24:16;25.30;46.90
73576;DHT22;61859;49.204;8.140;2023-05-15T14:26:42;26.40;47.00
73576;DHT22;61859;49.204;8.140;2023-05-15T14:29:10;27.20;43.60
73576;DHT22;61859;49.204;8.140;2023-05-15T14:31:35;27.50;41.60
73576;DHT22;61859;49.204;8.140;2023-05-15T14:34:01;26.90;42.50
73576;DHT22;61859;49.204;8.140;2023-05-15T14:36:26;26.40;43.40
73576;DHT22;61859;49.204;8.140;2023-05-15T14:38:55;26.10;43.10
73576;DHT22;61859;49.204;8.140;2023-05-15T14:41:20;26.20;43.00
73576;DHT22;61859;49.204;8.140;2023-05-15T14:43:46;25.60;44.40
73576;DHT22;61859;49.204;8.140;2023-05-15T14:46:11;25.60;44.60
73576;DHT22;61859;49.204;8.140;2023-05-15T14:48:37;26.00;44.60
73576;DHT22;61859;49.204;8.140;2023-05-15T14:51:02;26.10;43.90
73576;DHT22;61859;49.204;8.140;2023-05-15T14:53:28;25.60;44.80
73576;DHT22;61859;49.204;8.140;2023-05-15T14:55:54;24.50;45.10
73576;DHT22;61859;49.204;8.140;2023-05-15T14:58:20;23.70;46.70
73576;DHT22;61859;49.204;8.140;2023-05-15T15:00:45;22.70;48.50
73576;DHT22;61859;49.204;8.140;2023-05-15T15:03:12;22.00;50.60
73576;DHT22;61859;49.204;8.140;2023-05-15T15:05:38;21.50;52.30
73576;DHT22;61859;49.204;8.140;2023-05-15T15:08:04;21.20;54.00
73576;DHT22;61859;49.204;8.140;2023-05-15T15:10:32;20.90;54.80
73576;DHT22;61859;49.204;8.140;2023-05-15T15:12:59;20.80;55.20
73576;DHT22;61859;49.204;8.140;2023-05-15T15:15:25;20.80;56.10
73576;DHT22;61859;49.204;8.140;2023-05-15T15:17:51;20.90;55.60
73576;DHT22;61859;49.204;8.140;2023-05-15T15:20:19;21.10;55.30
73576;DHT22;61859;49.204;8.140;2023-05-15T15:22:45;21.00;55.80
73576;DHT22;61859;49.204;8.140;2023-05-15T15:25:12;20.80;54.80
73576;DHT22;61859;49.204;8.140;2023-05-15T15:27:41;20.50;55.10
73576;DHT22;61859;49.204;8.140;2023-05-15T15:30:07;20.30;55.90
73576;DHT22;61859;49.204;8.140;2023-05-15T15:32:34;20.10;58.00
73576;DHT22;61859;49.204;8.140;2023-05-15T15:35:00;19.80;59.20
73576;DHT22;61859;49.204;8.140;2023-05-15T15:37:30;19.50;59.00
73576;DHT22;61859;49.204;8.140;2023-05-15T15:40:06;19.50;58.00
73576;DHT22;61859;49.204;8.140;2023-05-15T15:42:32;19.40;57.00
73576;DHT22;61859;49.204;8.140;2023-05-15T15:44:59;19.60;55.60
73576;DHT22;61859;49.204;8.140;2023-05-15T15:47:25;19.70;56.60
73576;DHT22;61859;49.204;8.140;2023-05-15T15:49:51;20.00;55.60
73576;DHT22;61859;49.204;8.140;2023-05-15T15:52:18;20.30;58.70
73576;DHT22;61859;49.204;8.140;2023-05-15T15:54:44;20.50;55.80
73576;DHT22;61859;49.204;8.140;2023-05-15T15:57:18;20.30;57.40